< < Back
Terminal Aerodrome Forecast


Current Version              Previous Versions:   1  2  3  4  5  6  7  8  9  

Terminal Aerodrome Forecast

142
FTUS42 KCAE 140520
TAFAGS
TAF
KAGS 140520Z 1406/1506 32005KT P6SM SKC
     FM140900 02006KT P6SM SCT150
     FM141500 07010KT P6SM BKN120=



Latest METAR

504
SAUS70 KWBC 140600 RRD
MTRAGS
METAR KAGS 140553Z AUTO 03006KT 10SM CLR M01/M09 A3037 RMK AO2 SLP285
T10061094 10044 21022 58001


USA.gov is the U.S. government's official web portal to all federal, state and local government web resources and services.